sensor_id;sensor_type;location;lat;lon;timestamp;pressure;altitude;pressure_sealevel;temperature;humidity
61573;BME280;47465;43.094;12.434;2023-11-21T00:03:26;98031.66;;;14.93;100.00
61573;BME280;47465;43.094;12.434;2023-11-21T00:06:24;98056.44;;;15.13;100.00
61573;BME280;47465;43.094;12.434;2023-11-21T00:09:06;98120.94;;;15.56;100.00
61573;BME280;47465;43.094;12.434;2023-11-21T00:15:04;97946.78;;;14.64;100.00
61573;BME280;47465;43.094;12.434;2023-11-21T00:18:07;97960.88;;;14.67;100.00
61573;BME280;47465;43.094;12.434;2023-11-21T00:21:38;97979.00;;;14.78;100.00
61573;BME280;47465;43.094;12.434;2023-11-21T00:41:44;97918.28;;;14.78;100.00
61573;BME280;47465;43.094;12.434;2023-11-21T00:48:02;97924.06;;;14.87;100.00
61573;BME280;47465;43.094;12.434;2023-11-21T00:51:05;97925.44;;;14.94;100.00
61573;BME280;47465;43.094;12.434;2023-11-21T00:57:02;97961.91;;;15.27;100.00
61573;BME280;47465;43.094;12.434;2023-11-21T01:00:28;97922.16;;;14.89;100.00
61573;BME280;47465;43.094;12.434;2023-11-21T01:03:50;97925.63;;;14.91;100.00
61573;BME280;47465;43.094;12.434;2023-11-21T01:07:08;97920.06;;;14.94;100.00
61573;BME280;47465;43.094;12.434;2023-11-21T01:14:17;98051.22;;;15.88;100.00
61573;BME280;47465;43.094;12.434;2023-11-21T01:22:53;98032.81;;;15.96;100.00
61573;BME280;47465;43.094;12.434;2023-11-21T01:26:16;97899.00;;;15.04;100.00
61573;BME280;47465;43.094;12.434;2023-11-21T01:40:20;97913.28;;;15.18;100.00
61573;BME280;47465;43.094;12.434;2023-11-21T02:00:17;97923.09;;;15.48;100.00
61573;BME280;47465;43.094;12.434;2023-11-21T02:03:03;97861.44;;;15.05;100.00
61573;BME280;47465;43.094;12.434;2023-11-21T04:57:54;97932.47;;;15.71;100.00
61573;BME280;47465;43.094;12.434;2023-11-21T06:50:17;97805.66;;;14.97;100.00
61573;BME280;47465;43.094;12.434;2023-11-21T06:52:43;97805.69;;;15.12;100.00
61573;BME280;47465;43.094;12.434;2023-11-21T06:55:23;97737.16;;;14.65;100.00
61573;BME280;47465;43.094;12.434;2023-11-21T06:58:03;97743.94;;;14.70;100.00
61573;BME280;47465;43.094;12.434;2023-11-21T07:00:41;97746.88;;;14.66;100.00
61573;BME280;47465;43.094;12.434;2023-11-21T07:06:11;97812.84;;;15.11;100.00
61573;BME280;47465;43.094;12.434;2023-11-21T07:09:09;97745.75;;;14.70;100.00
61573;BME280;47465;43.094;12.434;2023-11-21T07:12:11;97719.28;;;14.65;100.00
61573;BME280;47465;43.094;12.434;2023-11-21T07:14:47;97698.00;;;14.48;100.00
61573;BME280;47465;43.094;12.434;2023-11-21T07:17:19;97767.28;;;14.83;100.00
61573;BME280;47465;43.094;12.434;2023-11-21T07:19:55;97726.53;;;14.63;100.00
61573;BME280;47465;43.094;12.434;2023-11-21T07:22:57;97722.63;;;14.69;100.00
61573;BME280;47465;43.094;12.434;2023-11-21T07:25:46;97858.88;;;15.32;100.00
61573;BME280;47465;43.094;12.434;2023-11-21T07:28:29;97720.03;;;14.67;100.00
61573;BME280;47465;43.094;12.434;2023-11-21T07:34:08;97764.94;;;14.62;100.00
61573;BME280;47465;43.094;12.434;2023-11-21T07:37:00;97713.75;;;14.68;100.00
61573;BME280;47465;43.094;12.434;2023-11-21T07:39:30;97713.13;;;14.33;100.00
61573;BME280;47465;43.094;12.434;2023-11-21T07:42:08;97753.78;;;14.70;100.00
61573;BME280;47465;43.094;12.434;2023-11-21T07:44:35;97722.06;;;14.48;100.00
61573;BME280;47465;43.094;12.434;2023-11-21T07:47:06;97715.44;;;14.39;100.00
61573;BME280;47465;43.094;12.434;2023-11-21T07:49:43;97699.00;;;14.61;100.00
61573;BME280;47465;43.094;12.434;2023-11-21T07:52:25;97819.69;;;15.31;100.00
61573;BME280;47465;43.094;12.434;2023-11-21T07:55:01;97802.84;;;15.29;100.00
61573;BME280;47465;43.094;12.434;2023-11-21T07:57:33;97760.03;;;15.13;100.00
61573;BME280;47465;43.094;12.434;2023-11-21T08:00:07;97815.00;;;15.64;100.00
61573;BME280;47465;43.094;12.434;2023-11-21T08:02:37;97780.44;;;15.45;100.00
61573;BME280;47465;43.094;12.434;2023-11-21T08:05:11;97814.44;;;15.73;100.00
61573;BME280;47465;43.094;12.434;2023-11-21T08:07:37;97731.84;;;15.22;100.00
61573;BME280;47465;43.094;12.434;2023-11-21T08:10:08;97843.63;;;15.92;100.00
61573;BME280;47465;43.094;12.434;2023-11-21T08:12:38;97719.31;;;15.23;100.00
61573;BME280;47465;43.094;12.434;2023-11-21T08:15:19;97779.50;;;15.74;100.00
61573;BME280;47465;43.094;12.434;2023-11-21T08:17:46;97737.19;;;15.51;100.00
61573;BME280;47465;43.094;12.434;2023-11-21T08:20:19;97795.94;;;15.82;100.00
61573;BME280;47465;43.094;12.434;2023-11-21T08:22:53;97825.41;;;16.11;100.00
61573;BME280;47465;43.094;12.434;2023-11-21T08:25:28;97822.59;;;16.13;100.00
61573;BME280;47465;43.094;12.434;2023-11-21T08:27:59;97732.78;;;15.64;100.00
61573;BME280;47465;43.094;12.434;2023-11-21T08:30:27;97771.63;;;15.86;100.00
61573;BME280;47465;43.094;12.434;2023-11-21T08:32:57;97692.44;;;15.38;100.00
61573;BME280;47465;43.094;12.434;2023-11-21T08:35:26;97708.50;;;15.53;100.00
61573;BME280;47465;43.094;12.434;2023-11-21T08:37:52;97711.81;;;15.56;100.00
61573;BME280;47465;43.094;12.434;2023-11-21T08:40:29;97779.91;;;16.10;100.00
61573;BME280;47465;43.094;12.434;2023-11-21T08:42:58;97673.34;;;15.57;100.00
61573;BME280;47465;43.094;12.434;2023-11-21T08:45:33;97766.84;;;16.18;100.00
61573;BME280;47465;43.094;12.434;2023-11-21T08:48:03;97718.47;;;15.92;100.00
61573;BME280;47465;43.094;12.434;2023-11-21T08:50:30;97707.81;;;16.05;100.00
61573;BME280;47465;43.094;12.434;2023-11-21T08:53:00;97650.16;;;15.71;100.00
61573;BME280;47465;43.094;12.434;2023-11-21T08:55:30;97733.47;;;16.22;100.00
61573;BME280;47465;43.094;12.434;2023-11-21T08:58:00;97739.00;;;16.33;100.00
61573;BME280;47465;43.094;12.434;2023-11-21T09:00:32;97664.94;;;15.91;100.00
61573;BME280;47465;43.094;12.434;2023-11-21T09:03:07;97650.94;;;15.73;100.00
61573;BME280;47465;43.094;12.434;2023-11-21T09:05:45;97705.66;;;16.10;100.00
61573;BME280;47465;43.094;12.434;2023-11-21T09:08:11;97657.28;;;15.57;100.00
61573;BME280;47465;43.094;12.434;2023-11-21T09:10:58;97725.13;;;15.99;100.00
61573;BME280;47465;43.094;12.434;2023-11-21T09:13:29;97701.41;;;15.93;100.00
61573;BME280;47465;43.094;12.434;2023-11-21T09:15:59;97772.81;;;16.36;100.00
61573;BME280;47465;43.094;12.434;2023-11-21T09:18:31;97804.09;;;16.50;100.00
61573;BME280;47465;43.094;12.434;2023-11-21T09:20:59;97806.31;;;16.70;100.00
61573;BME280;47465;43.094;12.434;2023-11-21T09:23:25;97663.38;;;16.01;100.00
61573;BME280;47465;43.094;12.434;2023-11-21T09:25:53;97769.44;;;16.59;100.00
61573;BME280;47465;43.094;12.434;2023-11-21T09:28:27;97691.22;;;16.26;100.00
61573;BME280;47465;43.094;12.434;2023-11-21T09:30:53;97640.66;;;15.79;100.00
61573;BME280;47465;43.094;12.434;2023-11-21T09:33:19;97663.25;;;15.90;100.00
61573;BME280;47465;43.094;12.434;2023-11-21T09:35:47;97756.09;;;16.45;100.00
61573;BME280;47465;43.094;12.434;2023-11-21T09:38:15;97648.22;;;16.00;100.00
61573;BME280;47465;43.094;12.434;2023-11-21T09:40:45;97682.41;;;16.23;100.00
61573;BME280;47465;43.094;12.434;2023-11-21T09:43:25;97716.97;;;16.68;100.00
61573;BME280;47465;43.094;12.434;2023-11-21T09:45:59;97633.59;;;16.18;100.00
61573;BME280;47465;43.094;12.434;2023-11-21T09:48:26;97685.28;;;16.60;100.00
61573;BME280;47465;43.094;12.434;2023-11-21T09:50:54;97707.22;;;16.80;100.00
61573;BME280;47465;43.094;12.434;2023-11-21T09:53:22;97740.44;;;17.04;100.00
61573;BME280;47465;43.094;12.434;2023-11-21T09:55:53;97617.63;;;16.30;100.00
61573;BME280;47465;43.094;12.434;2023-11-21T09:58:20;97649.19;;;16.39;100.00
61573;BME280;47465;43.094;12.434;2023-11-21T10:00:48;97591.59;;;15.92;100.00
61573;BME280;47465;43.094;12.434;2023-11-21T10:03:15;97688.19;;;16.57;100.00
61573;BME280;47465;43.094;12.434;2023-11-21T10:05:42;97637.03;;;16.20;100.00
61573;BME280;47465;43.094;12.434;2023-11-21T10:08:12;97648.09;;;16.29;100.00
61573;BME280;47465;43.094;12.434;2023-11-21T10:10:42;97581.84;;;15.91;100.00
61573;BME280;47465;43.094;12.434;2023-11-21T10:13:12;97665.72;;;16.46;100.00
61573;BME280;47465;43.094;12.434;2023-11-21T10:15:42;97700.94;;;16.54;100.00
61573;BME280;47465;43.094;12.434;2023-11-21T10:18:22;97664.00;;;16.45;100.00
61573;BME280;47465;43.094;12.434;2023-11-21T10:20:51;97572.94;;;15.90;100.00
61573;BME280;47465;43.094;12.434;2023-11-21T10:23:21;97651.03;;;16.51;100.00
61573;BME280;47465;43.094;12.434;2023-11-21T10:25:52;97557.06;;;16.00;100.00
61573;BME280;47465;43.094;12.434;2023-11-21T10:28:25;97685.75;;;16.93;100.00
61573;BME280;47465;43.094;12.434;2023-11-21T10:31:02;97646.22;;;16.95;100.00
61573;BME280;47465;43.094;12.434;2023-11-21T10:33:40;97555.06;;;16.68;100.00
61573;BME280;47465;43.094;12.434;2023-11-21T10:36:25;97602.94;;;17.36;100.00
61573;BME280;47465;43.094;12.434;2023-11-21T10:38:54;97652.56;;;17.80;100.00
61573;BME280;47465;43.094;12.434;2023-11-21T10:41:35;97529.03;;;17.31;100.00
61573;BME280;47465;43.094;12.434;2023-11-21T10:44:10;97530.38;;;17.36;100.00
61573;BME280;47465;43.094;12.434;2023-11-21T10:57:40;97490.94;;;17.61;100.00
61573;BME280;47465;43.094;12.434;2023-11-21T11:00:41;97490.66;;;17.53;100.00
61573;BME280;47465;43.094;12.434;2023-11-21T11:03:24;97488.72;;;17.66;100.00
61573;BME280;47465;43.094;12.434;2023-11-21T11:06:13;97487.53;;;17.70;100.00
61573;BME280;47465;43.094;12.434;2023-11-21T11:09:15;97491.03;;;17.83;100.00
61573;BME280;47465;43.094;12.434;2023-11-21T11:12:07;97595.13;;;18.63;100.00
61573;BME280;47465;43.094;12.434;2023-11-21T11:15:06;97622.47;;;19.04;100.00
61573;BME280;47465;43.094;12.434;2023-11-21T11:17:37;97515.06;;;18.43;100.00
61573;BME280;47465;43.094;12.434;2023-11-21T11:20:50;97491.47;;;18.35;100.00
61573;BME280;47465;43.094;12.434;2023-11-21T11:23:34;97591.75;;;18.95;100.00
61573;BME280;47465;43.094;12.434;2023-11-21T11:26:09;97615.75;;;19.09;100.00
61573;BME280;47465;43.094;12.434;2023-11-21T11:28:44;97494.91;;;18.37;100.00
61573;BME280;47465;43.094;12.434;2023-11-21T11:31:52;97589.53;;;18.78;100.00
61573;BME280;47465;43.094;12.434;2023-11-21T11:34:30;97499.41;;;18.25;100.00
61573;BME280;47465;43.094;12.434;2023-11-21T11:37:07;97461.19;;;17.86;100.00
61573;BME280;47465;43.094;12.434;2023-11-21T11:39:52;97524.50;;;18.26;100.00
61573;BME280;47465;43.094;12.434;2023-11-21T11:43:06;97467.81;;;17.94;100.00
61573;BME280;47465;43.094;12.434;2023-11-21T11:45:42;97474.22;;;17.80;100.00
61573;BME280;47465;43.094;12.434;2023-11-21T11:48:14;97585.19;;;18.41;100.00
61573;BME280;47465;43.094;12.434;2023-11-21T11:51:41;97469.44;;;17.72;100.00
61573;BME280;47465;43.094;12.434;2023-11-21T11:54:16;97472.63;;;17.77;100.00
61573;BME280;47465;43.094;12.434;2023-11-21T12:21:59;97426.38;;;18.19;100.00
61573;BME280;47465;43.094;12.434;2023-11-21T12:24:34;97413.41;;;18.13;100.00
61573;BME280;47465;43.094;12.434;2023-11-21T12:27:04;97443.63;;;18.27;100.00
61573;BME280;47465;43.094;12.434;2023-11-21T12:29:30;97476.44;;;18.44;100.00
61573;BME280;47465;43.094;12.434;2023-11-21T12:32:04;97419.63;;;18.02;100.00
61573;BME280;47465;43.094;12.434;2023-11-21T12:34:36;97544.81;;;18.75;100.00
61573;BME280;47465;43.094;12.434;2023-11-21T12:37:18;97430.19;;;18.05;100.00
61573;BME280;47465;43.094;12.434;2023-11-21T12:39:50;97413.16;;;17.47;100.00
61573;BME280;47465;43.094;12.434;2023-11-21T12:42:19;97404.84;;;17.50;100.00
61573;BME280;47465;43.094;12.434;2023-11-21T12:44:48;97405.13;;;17.58;100.00
61573;BME280;47465;43.094;12.434;2023-11-21T12:47:30;97527.41;;;18.34;100.00
61573;BME280;47465;43.094;12.434;2023-11-21T12:50:00;97400.13;;;17.53;100.00
61573;BME280;47465;43.094;12.434;2023-11-21T12:52:47;97389.44;;;17.40;100.00
61573;BME280;47465;43.094;12.434;2023-11-21T12:55:25;97392.31;;;17.50;100.00
61573;BME280;47465;43.094;12.434;2023-11-21T13:11:49;97366.50;;;17.48;100.00
61573;BME280;47465;43.094;12.434;2023-11-21T13:14:31;97367.22;;;17.50;100.00
61573;BME280;47465;43.094;12.434;2023-11-21T13:17:03;97366.47;;;17.36;100.00
61573;BME280;47465;43.094;12.434;2023-11-21T13:24:00;97347.97;;;17.09;100.00
61573;BME280;47465;43.094;12.434;2023-11-21T13:50:03;97481.75;;;16.41;100.00
61573;BME280;47465;43.094;12.434;2023-11-21T14:04:56;97381.28;;;15.70;100.00
61573;BME280;47465;43.094;12.434;2023-11-21T14:08:13;97344.53;;;15.47;100.00
61573;BME280;47465;43.094;12.434;2023-11-21T14:11:29;97371.53;;;15.95;100.00
61573;BME280;47465;43.094;12.434;2023-11-21T14:17:39;97302.41;;;15.61;100.00
61573;BME280;47465;43.094;12.434;2023-11-21T14:20:54;97321.69;;;15.67;100.00
61573;BME280;47465;43.094;12.434;2023-11-21T14:23:24;97450.44;;;16.42;100.00
61573;BME280;47465;43.094;12.434;2023-11-21T14:26:03;97369.50;;;15.98;100.00
61573;BME280;47465;43.094;12.434;2023-11-21T14:32:15;97289.63;;;15.52;100.00
61573;BME280;47465;43.094;12.434;2023-11-21T14:54:46;97387.63;;;15.95;100.00
61573;BME280;47465;43.094;12.434;2023-11-21T15:36:20;97355.72;;;15.13;100.00
61573;BME280;47465;43.094;12.434;2023-11-21T15:39:12;97295.13;;;14.60;100.00
61573;BME280;47465;43.094;12.434;2023-11-21T15:42:14;97289.72;;;14.47;100.00
61573;BME280;47465;43.094;12.434;2023-11-21T15:44:51;97395.94;;;14.86;100.00
61573;BME280;47465;43.094;12.434;2023-11-21T15:47:20;97326.44;;;14.30;100.00
61573;BME280;47465;43.094;12.434;2023-11-21T15:49:57;97304.03;;;14.60;100.00
61573;BME280;47465;43.094;12.434;2023-11-21T15:52:49;97330.03;;;14.02;100.00
61573;BME280;47465;43.094;12.434;2023-11-21T15:55:24;97396.59;;;14.48;100.00
61573;BME280;47465;43.094;12.434;2023-11-21T15:57:53;97301.63;;;13.72;100.00
61573;BME280;47465;43.094;12.434;2023-11-21T16:00:21;97432.38;;;14.74;100.00
61573;BME280;47465;43.094;12.434;2023-11-21T16:02:54;97307.91;;;14.00;100.00
61573;BME280;47465;43.094;12.434;2023-11-21T16:05:28;97378.25;;;14.56;100.00
61573;BME280;47465;43.094;12.434;2023-11-21T16:08:00;97333.47;;;13.90;100.00
61573;BME280;47465;43.094;12.434;2023-11-21T16:10:33;97362.69;;;13.79;100.00
61573;BME280;47465;43.094;12.434;2023-11-21T16:13:04;97393.59;;;13.54;100.00
61573;BME280;47465;43.094;12.434;2023-11-21T16:15:36;97446.78;;;14.02;100.00
61573;BME280;47465;43.094;12.434;2023-11-21T16:18:11;97305.97;;;13.16;100.00
61573;BME280;47465;43.094;12.434;2023-11-21T16:20:40;97299.63;;;12.74;100.00
61573;BME280;47465;43.094;12.434;2023-11-21T16:23:06;97427.34;;;13.10;100.00
61573;BME280;47465;43.094;12.434;2023-11-21T16:25:38;97428.13;;;12.97;100.00
61573;BME280;47465;43.094;12.434;2023-11-21T16:28:04;97294.00;;;12.02;100.00
61573;BME280;47465;43.094;12.434;2023-11-21T16:30:31;97470.53;;;13.17;100.00
61573;BME280;47465;43.094;12.434;2023-11-21T16:33:02;97450.81;;;13.20;100.00
61573;BME280;47465;43.094;12.434;2023-11-21T16:35:31;97334.63;;;12.53;100.00
61573;BME280;47465;43.094;12.434;2023-11-21T16:37:59;97383.38;;;12.86;100.00
61573;BME280;47465;43.094;12.434;2023-11-21T16:40:29;97477.63;;;13.48;100.00
61573;BME280;47465;43.094;12.434;2023-11-21T16:43:00;97475.41;;;13.41;100.00
61573;BME280;47465;43.094;12.434;2023-11-21T16:45:36;97341.41;;;12.43;100.00
61573;BME280;47465;43.094;12.434;2023-11-21T16:48:12;97335.97;;;12.61;100.00
61573;BME280;47465;43.094;12.434;2023-11-21T16:50:46;97337.53;;;12.79;100.00
61573;BME280;47465;43.094;12.434;2023-11-21T16:53:38;97517.84;;;13.75;100.00
61573;BME280;47465;43.094;12.434;2023-11-21T16:56:26;97410.06;;;13.02;100.00
61573;BME280;47465;43.094;12.434;2023-11-21T16:59:12;97389.69;;;13.15;100.00
61573;BME280;47465;43.094;12.434;2023-11-21T17:20:43;97438.56;;;12.22;100.00
61573;BME280;47465;43.094;12.434;2023-11-21T17:23:24;97406.84;;;12.33;100.00
61573;BME280;47465;43.094;12.434;2023-11-21T17:26:02;97414.69;;;11.87;100.00
61573;BME280;47465;43.094;12.434;2023-11-21T17:28:30;97503.63;;;12.02;100.00
61573;BME280;47465;43.094;12.434;2023-11-21T17:30:57;97407.72;;;11.34;100.00
61573;BME280;47465;43.094;12.434;2023-11-21T17:33:31;97415.88;;;11.48;100.00
61573;BME280;47465;43.094;12.434;2023-11-21T17:36:09;97546.00;;;12.06;100.00
61573;BME280;47465;43.094;12.434;2023-11-21T17:38:41;97401.63;;;11.31;100.00
61573;BME280;47465;43.094;12.434;2023-11-21T17:41:10;97538.00;;;12.06;100.00
61573;BME280;47465;43.094;12.434;2023-11-21T17:43:36;97504.09;;;12.26;100.00
61573;BME280;47465;43.094;12.434;2023-11-21T17:46:14;97484.75;;;12.22;100.00
61573;BME280;47465;43.094;12.434;2023-11-21T17:48:47;97406.31;;;11.44;100.00
61573;BME280;47465;43.094;12.434;2023-11-21T17:51:16;97538.19;;;12.37;100.00
61573;BME280;47465;43.094;12.434;2023-11-21T17:53:42;97450.66;;;11.78;100.00
61573;BME280;47465;43.094;12.434;2023-11-21T17:56:13;97396.81;;;11.56;100.00
61573;BME280;47465;43.094;12.434;2023-11-21T17:58:41;97536.72;;;12.47;100.00
61573;BME280;47465;43.094;12.434;2023-11-21T18:01:07;97546.91;;;12.23;100.00
61573;BME280;47465;43.094;12.434;2023-11-21T18:03:34;97554.03;;;12.56;100.00
61573;BME280;47465;43.094;12.434;2023-11-21T18:06:00;97410.84;;;11.75;100.00
61573;BME280;47465;43.094;12.434;2023-11-21T18:08:27;97581.31;;;12.77;100.00
61573;BME280;47465;43.094;12.434;2023-11-21T18:10:53;97575.03;;;12.62;100.00
61573;BME280;47465;43.094;12.434;2023-11-21T18:13:19;97514.50;;;12.15;100.00
61573;BME280;47465;43.094;12.434;2023-11-21T18:15:45;97424.00;;;11.45;100.00
61573;BME280;47465;43.094;12.434;2023-11-21T18:18:11;97560.34;;;12.37;100.00
61573;BME280;47465;43.094;12.434;2023-11-21T18:20:37;97397.94;;;11.34;100.00
61573;BME280;47465;43.094;12.434;2023-11-21T18:23:03;97372.22;;;11.17;100.00
61573;BME280;47465;43.094;12.434;2023-11-21T18:25:30;97451.94;;;11.71;100.00
61573;BME280;47465;43.094;12.434;2023-11-21T18:27:56;97512.97;;;11.93;100.00
61573;BME280;47465;43.094;12.434;2023-11-21T18:30:22;97384.50;;;11.02;100.00
61573;BME280;47465;43.094;12.434;2023-11-21T18:32:56;97400.53;;;11.18;100.00
61573;BME280;47465;43.094;12.434;2023-11-21T18:35:24;97550.06;;;12.13;100.00
61573;BME280;47465;43.094;12.434;2023-11-21T18:37:50;97451.31;;;11.48;100.00
61573;BME280;47465;43.094;12.434;2023-11-21T18:40:16;97393.19;;;11.06;100.00
61573;BME280;47465;43.094;12.434;2023-11-21T18:42:44;97440.91;;;11.61;100.00
61573;BME280;47465;43.094;12.434;2023-11-21T18:45:30;97340.56;;;10.95;100.00
61573;BME280;47465;43.094;12.434;2023-11-21T18:48:08;97372.22;;;11.17;100.00
61573;BME280;47465;43.094;12.434;2023-11-21T18:50:36;97480.38;;;11.36;100.00
61573;BME280;47465;43.094;12.434;2023-11-21T18:53:08;97531.84;;;11.71;100.00
61573;BME280;47465;43.094;12.434;2023-11-21T18:55:35;97477.63;;;11.55;100.00
61573;BME280;47465;43.094;12.434;2023-11-21T18:59:05;97382.88;;;11.00;100.00
61573;BME280;47465;43.094;12.434;2023-11-21T19:01:44;97382.22;;;11.29;100.00
61573;BME280;47465;43.094;12.434;2023-11-21T19:04:42;97475.91;;;11.71;100.00
61573;BME280;47465;43.094;12.434;2023-11-21T19:07:08;97425.97;;;11.06;100.00
61573;BME280;47465;43.094;12.434;2023-11-21T19:09:34;97404.91;;;11.37;100.00
61573;BME280;47465;43.094;12.434;2023-11-21T19:12:01;97499.59;;;12.10;100.00
61573;BME280;47465;43.094;12.434;2023-11-21T19:14:29;97506.53;;;11.97;100.00
61573;BME280;47465;43.094;12.434;2023-11-21T19:16:54;97428.25;;;11.82;100.00
61573;BME280;47465;43.094;12.434;2023-11-21T19:19:21;97514.50;;;12.15;100.00
61573;BME280;47465;43.094;12.434;2023-11-21T19:21:47;97504.53;;;11.83;100.00
61573;BME280;47465;43.094;12.434;2023-11-21T19:24:13;97476.66;;;11.90;100.00
61573;BME280;47465;43.094;12.434;2023-11-21T19:26:39;97416.47;;;11.53;100.00
61573;BME280;47465;43.094;12.434;2023-11-21T19:29:05;97455.03;;;11.79;100.00
61573;BME280;47465;43.094;12.434;2023-11-21T19:31:35;97453.72;;;11.70;100.00
61573;BME280;47465;43.094;12.434;2023-11-21T19:34:01;97453.72;;;11.88;100.00
61573;BME280;47465;43.094;12.434;2023-11-21T19:36:27;97440.94;;;11.77;100.00
61573;BME280;47465;43.094;12.434;2023-11-21T19:38:53;97415.63;;;11.52;100.00
61573;BME280;47465;43.094;12.434;2023-11-21T19:41:20;97406.56;;;11.72;100.00
61573;BME280;47465;43.094;12.434;2023-11-21T19:43:47;97431.69;;;11.84;100.00
61573;BME280;47465;43.094;12.434;2023-11-21T19:46:13;97420.94;;;11.86;100.00
61573;BME280;47465;43.094;12.434;2023-11-21T19:48:41;97404.00;;;11.71;100.00
61573;BME280;47465;43.094;12.434;2023-11-21T19:51:08;97404.44;;;11.46;100.00
61573;BME280;47465;43.094;12.434;2023-11-21T19:53:34;97397.00;;;11.35;100.00
61573;BME280;47465;43.094;12.434;2023-11-21T19:56:03;97442.09;;;11.38;100.00
61573;BME280;47465;43.094;12.434;2023-11-21T19:58:28;97536.69;;;11.98;100.00
61573;BME280;47465;43.094;12.434;2023-11-21T20:00:55;97475.28;;;11.31;100.00
61573;BME280;47465;43.094;12.434;2023-11-21T20:03:21;97378.31;;;10.67;100.00
61573;BME280;47465;43.094;12.434;2023-11-21T20:05:48;97518.41;;;11.55;100.00
61573;BME280;47465;43.094;12.434;2023-11-21T20:08:14;97544.44;;;11.85;100.00
61573;BME280;47465;43.094;12.434;2023-11-21T20:10:41;97470.31;;;11.06;100.00
61573;BME280;47465;43.094;12.434;2023-11-21T20:13:06;97557.56;;;11.70;100.00
61573;BME280;47465;43.094;12.434;2023-11-21T20:15:32;97460.56;;;11.24;100.00
61573;BME280;47465;43.094;12.434;2023-11-21T20:17:58;97513.41;;;11.49;100.00
61573;BME280;47465;43.094;12.434;2023-11-21T20:20:24;97442.88;;;11.05;100.00
61573;BME280;47465;43.094;12.434;2023-11-21T20:22:52;97460.03;;;11.35;100.00
61573;BME280;47465;43.094;12.434;2023-11-21T20:25:18;97410.56;;;11.30;100.00
61573;BME280;47465;43.094;12.434;2023-11-21T20:27:44;97517.16;;;11.62;100.00
61573;BME280;47465;43.094;12.434;2023-11-21T20:30:10;97518.09;;;11.26;100.00
61573;BME280;47465;43.094;12.434;2023-11-21T20:32:36;97550.84;;;11.46;100.00
61573;BME280;47465;43.094;12.434;2023-11-21T20:35:02;97486.09;;;11.10;100.00
61573;BME280;47465;43.094;12.434;2023-11-21T20:37:30;97435.84;;;10.68;100.00
61573;BME280;47465;43.094;12.434;2023-11-21T20:39:58;97527.97;;;11.24;100.00
61573;BME280;47465;43.094;12.434;2023-11-21T20:42:26;97462.66;;;10.82;100.00
61573;BME280;47465;43.094;12.434;2023-11-21T20:44:53;97536.69;;;11.45;100.00
61573;BME280;47465;43.094;12.434;2023-11-21T20:47:19;97524.03;;;11.14;100.00
61573;BME280;47465;43.094;12.434;2023-11-21T20:49:45;97455.69;;;10.97;100.00
61573;BME280;47465;43.094;12.434;2023-11-21T20:52:11;97536.44;;;11.50;100.00
61573;BME280;47465;43.094;12.434;2023-11-21T20:54:36;97532.22;;;11.63;100.00
61573;BME280;47465;43.094;12.434;2023-11-21T20:57:04;97431.25;;;10.72;100.00
61573;BME280;47465;43.094;12.434;2023-11-21T20:59:32;97538.44;;;11.45;100.00
61573;BME280;47465;43.094;12.434;2023-11-21T21:01:57;97443.25;;;10.80;100.00
61573;BME280;47465;43.094;12.434;2023-11-21T21:04:23;97510.34;;;11.22;100.00
61573;BME280;47465;43.094;12.434;2023-11-21T21:06:49;97469.38;;;10.89;100.00
61573;BME280;47465;43.094;12.434;2023-11-21T21:09:15;97511.81;;;11.27;100.00
61573;BME280;47465;43.094;12.434;2023-11-21T21:11:41;97509.09;;;11.46;100.00
61573;BME280;47465;43.094;12.434;2023-11-21T21:14:08;97455.38;;;11.03;100.00
61573;BME280;47465;43.094;12.434;2023-11-21T21:16:38;97530.22;;;11.15;100.00
61573;BME280;47465;43.094;12.434;2023-11-21T21:19:05;97462.19;;;10.92;100.00
61573;BME280;47465;43.094;12.434;2023-11-21T21:21:31;97525.44;;;11.04;100.00
61573;BME280;47465;43.094;12.434;2023-11-21T21:23:58;97542.22;;;11.23;100.00
61573;BME280;47465;43.094;12.434;2023-11-21T21:26:25;97470.59;;;10.65;100.00
61573;BME280;47465;43.094;12.434;2023-11-21T21:28:50;97475.50;;;10.73;100.00
61573;BME280;47465;43.094;12.434;2023-11-21T21:31:18;97531.78;;;11.19;100.00
61573;BME280;47465;43.094;12.434;2023-11-21T21:33:43;97470.81;;;10.78;100.00
61573;BME280;47465;43.094;12.434;2023-11-21T21:36:09;97512.94;;;11.23;100.00
61573;BME280;47465;43.094;12.434;2023-11-21T21:38:36;97582.06;;;11.42;100.00
61573;BME280;47465;43.094;12.434;2023-11-21T21:41:01;97522.44;;;10.74;100.00
61573;BME280;47465;43.094;12.434;2023-11-21T21:43:27;97514.13;;;10.99;100.00
61573;BME280;47465;43.094;12.434;2023-11-21T21:45:53;97585.91;;;11.37;100.00
61573;BME280;47465;43.094;12.434;2023-11-21T21:48:21;97544.38;;;11.15;100.00
61573;BME280;47465;43.094;12.434;2023-11-21T21:50:46;97598.47;;;11.52;100.00
61573;BME280;47465;43.094;12.434;2023-11-21T21:53:12;97604.41;;;11.57;100.00
61573;BME280;47465;43.094;12.434;2023-11-21T21:55:39;97534.97;;;11.08;100.00
61573;BME280;47465;43.094;12.434;2023-11-21T21:58:06;97588.22;;;11.25;100.00
61573;BME280;47465;43.094;12.434;2023-11-21T22:00:32;97571.41;;;11.06;100.00
61573;BME280;47465;43.094;12.434;2023-11-21T22:02:58;97611.59;;;11.19;100.00
61573;BME280;47465;43.094;12.434;2023-11-21T22:05:25;97504.50;;;10.20;100.00
61573;BME280;47465;43.094;12.434;2023-11-21T22:07:51;97469.50;;;10.31;100.00
61573;BME280;47465;43.094;12.434;2023-11-21T22:10:17;97596.41;;;11.21;100.00